Time;durP1;ratioP1;P1;durP2;ratioP2;P2;SDS_P1;SDS_P2;PMS_P1;PMS_P2;Temp;Humidity;BMP_temperature;BMP_pressure;BME280_temperature;BME280_humidity;BME280_pressure;Samples;Min_cycle;Max_cycle;Signal;HPM_P1;HPM_P2
2023/04/19 00:02:15;;;;;;;;;;;;;;;2.32;84.16;103278.47;5082302;28;19932;-75
2023/04/19 00:04:41;;;;;;;;;;;;;;;2.52;82.93;103270.34;5066800;28;20282;-75
2023/04/19 00:07:09;;;;;;;;;;;;;;;2.45;82.78;103260.38;5065032;28;19947;-74
2023/04/19 00:09:34;;;;;;;;;;;;;;;2.49;82.37;103260.88;5072674;28;19987;-74
2023/04/19 00:12:00;;;;;;;;;;;;;;;2.42;82.11;103267.78;5053075;28;19960;-74
2023/04/19 00:14:25;;;;;;;;;;;;;;;2.35;82.02;103262.28;5070554;28;20017;-75
2023/04/19 00:16:51;;;;;;;;;;;;;;;2.30;81.88;103264.53;5067305;28;19952;-75
2023/04/19 00:19:16;;;;;;;;;;;;;;;2.13;82.23;103260.13;5070693;28;19933;-74
2023/04/19 00:21:42;;;;;;;;;;;;;;;2.07;82.98;103264.19;5069807;28;19933;-74
2023/04/19 00:24:07;;;;;;;;;;;;;;;2.02;82.72;103260.34;5065120;28;19920;-73
2023/04/19 00:26:32;;;;;;;;;;;;;;;1.93;82.78;103259.44;5069507;28;19954;-75
2023/04/19 00:28:58;;;;;;;;;;;;;;;1.82;82.91;103257.00;5070612;28;19939;-72
2023/04/19 00:31:24;;;;;;;;;;;;;;;1.84;82.74;103261.16;5067435;28;19935;-73
2023/04/19 00:33:50;;;;;;;;;;;;;;;1.68;82.86;103260.16;5054255;28;20401;-77
2023/04/19 00:36:17;;;;;;;;;;;;;;;1.61;83.16;103246.72;5065296;28;20405;-73
2023/04/19 00:38:45;;;;;;;;;;;;;;;1.58;83.18;103254.94;5068872;28;20269;-74
2023/04/19 00:41:11;;;;;;;;;;;;;;;1.58;83.28;103254.94;5102000;28;19958;-73
2023/04/19 00:43:36;;;;;;;;;;;;;;;1.69;83.38;103252.06;5085678;28;20396;-75
2023/04/19 00:46:02;;;;;;;;;;;;;;;1.61;83.29;103252.81;5072275;28;20004;-74
2023/04/19 00:48:28;;;;;;;;;;;;;;;1.67;83.50;103259.34;5087083;28;20147;-72
2023/04/19 00:50:54;;;;;;;;;;;;;;;1.77;83.11;103249.53;5068890;28;20385;-73
2023/04/19 00:53:19;;;;;;;;;;;;;;;1.85;82.72;103251.44;5088161;28;19947;-73
2023/04/19 00:55:45;;;;;;;;;;;;;;;1.68;83.30;103250.41;5089642;28;19946;-74
2023/04/19 00:58:10;;;;;;;;;;;;;;;1.67;83.42;103248.75;5069928;28;19933;-73
2023/04/19 01:00:36;;;;;;;;;;;;;;;1.55;83.61;103244.66;5054416;28;19942;-74
2023/04/19 01:03:02;;;;;;;;;;;;;;;1.61;83.71;103252.00;5101860;28;19930;-73
2023/04/19 01:05:28;;;;;;;;;;;;;;;1.54;83.75;103248.28;5072194;28;19949;-75
2023/04/19 01:07:54;;;;;;;;;;;;;;;1.47;83.80;103248.06;5075857;28;19943;-76
2023/04/19 01:10:19;;;;;;;;;;;;;;;1.52;83.57;103247.63;5086550;28;19931;-73
2023/04/19 01:12:48;;;;;;;;;;;;;;;1.68;83.41;103255.72;5102860;28;20551;-73
2023/04/19 01:15:14;;;;;;;;;;;;;;;1.76;82.01;103247.88;5068736;28;20079;-73
2023/04/19 01:17:40;;;;;;;;;;;;;;;1.62;82.74;103241.28;5103240;28;19940;-74
2023/04/19 01:20:06;;;;;;;;;;;;;;;1.61;82.60;103249.34;5086539;28;19969;-74
2023/04/19 01:22:32;;;;;;;;;;;;;;;1.70;82.01;103248.47;5049097;28;20409;-74
2023/04/19 01:25:00;;;;;;;;;;;;;;;1.66;81.86;103247.09;5070899;28;19970;-75
2023/04/19 01:27:26;;;;;;;;;;;;;;;1.84;80.85;103244.50;5053618;28;19960;-76
2023/04/19 01:29:51;;;;;;;;;;;;;;;1.63;81.33;103242.13;5072934;28;20553;-74
2023/04/19 01:32:17;;;;;;;;;;;;;;;1.39;81.95;103250.59;5071804;28;19958;-71
2023/04/19 01:34:43;;;;;;;;;;;;;;;1.46;82.20;103245.56;5053536;28;20033;-75
2023/04/19 01:37:08;;;;;;;;;;;;;;;1.43;82.21;103251.16;5070813;28;19956;-74
2023/04/19 01:39:34;;;;;;;;;;;;;;;1.33;82.13;103244.09;5091372;28;19937;-75
2023/04/19 01:42:00;;;;;;;;;;;;;;;1.45;81.71;103236.00;5054850;28;19955;-75
2023/04/19 01:44:25;;;;;;;;;;;;;;;1.42;81.45;103238.91;5057522;28;20399;-74
2023/04/19 01:46:52;;;;;;;;;;;;;;;1.39;81.32;103241.84;5091169;28;19947;-75
2023/04/19 01:49:17;;;;;;;;;;;;;;;1.55;80.75;103234.09;5056721;28;19936;-75
2023/04/19 01:51:43;;;;;;;;;;;;;;;1.51;80.93;103238.03;5074962;28;20021;-73
2023/04/19 01:54:08;;;;;;;;;;;;;;;1.56;80.86;103236.63;5075325;28;19950;-73
2023/04/19 01:56:34;;;;;;;;;;;;;;;1.58;80.88;103226.72;5071662;28;20501;-72
2023/04/19 01:59:00;;;;;;;;;;;;;;;1.59;80.50;103230.19;5091454;28;20003;-75
2023/04/19 02:01:26;;;;;;;;;;;;;;;1.59;80.34;103224.91;5068747;28;20536;-75
2023/04/19 02:03:51;;;;;;;;;;;;;;;1.77;79.71;103223.13;5058198;28;19994;-73
2023/04/19 02:06:17;;;;;;;;;;;;;;;1.64;79.83;103220.03;5104259;28;19955;-74
2023/04/19 02:08:42;;;;;;;;;;;;;;;1.74;79.38;103218.13;5073732;28;20653;-73
2023/04/19 02:11:14;;;;;;;;;;;;;;;1.56;79.95;103219.94;5097193;28;20001;-72
2023/04/19 02:13:40;;;;;;;;;;;;;;;1.52;80.66;103218.56;5071585;28;19960;-75
2023/04/19 02:16:06;;;;;;;;;;;;;;;1.52;80.64;103229.13;5075012;28;20092;-73
2023/04/19 02:18:34;;;;;;;;;;;;;;;1.55;80.82;103232.28;5088883;28;19945;-72
2023/04/19 02:21:00;;;;;;;;;;;;;;;1.83;80.12;103222.53;5070251;28;19982;-73
2023/04/19 02:23:26;;;;;;;;;;;;;;;2.23;78.67;103229.13;5056164;28;19970;-73
2023/04/19 02:25:52;;;;;;;;;;;;;;;2.07;79.33;103224.53;5072806;28;20287;-74
2023/04/19 02:28:17;;;;;;;;;;;;;;;2.06;79.65;103232.63;5072197;28;20670;-73
2023/04/19 02:30:43;;;;;;;;;;;;;;;1.98;80.06;103229.91;5087208;28;20025;-72
2023/04/19 02:33:08;;;;;;;;;;;;;;;1.86;80.19;103227.50;5087831;28;19951;-73
2023/04/19 02:35:34;;;;;;;;;;;;;;;1.75;80.78;103224.25;5073141;28;19950;-73
2023/04/19 02:38:01;;;;;;;;;;;;;;;1.64;81.54;103218.22;5067486;28;19960;-74
2023/04/19 02:40:27;;;;;;;;;;;;;;;1.47;81.59;103220.81;5086288;28;19946;-73
2023/04/19 02:42:52;;;;;;;;;;;;;;;1.37;82.14;103223.53;5091162;28;19936;-73
2023/04/19 02:45:20;;;;;;;;;;;;;;;1.23;82.31;103224.84;5084438;28;19938;-73
2023/04/19 02:47:45;;;;;;;;;;;;;;;1.16;82.94;103223.78;5089672;28;20445;-73
2023/04/19 02:50:11;;;;;;;;;;;;;;;1.09;83.19;103218.25;5075009;28;19934;-73
2023/04/19 02:52:44;;;;;;;;;;;;;;;1.04;83.69;103217.03;5073824;28;19952;-73
2023/04/19 02:55:09;;;;;;;;;;;;;;;0.95;83.99;103231.94;5072810;28;19982;-73
2023/04/19 02:57:35;;;;;;;;;;;;;;;0.88;84.17;103220.28;5073306;28;19939;-73
2023/04/19 03:00:01;;;;;;;;;;;;;;;0.93;84.63;103217.19;5090211;28;20007;-72
2023/04/19 03:02:30;;;;;;;;;;;;;;;0.95;84.92;103217.88;5083419;28;20078;-73
2023/04/19 03:04:55;;;;;;;;;;;;;;;0.93;85.06;103218.03;5057553;28;19953;-73
2023/04/19 03:07:22;;;;;;;;;;;;;;;0.90;85.21;103217.50;5085210;28;20429;-74
2023/04/19 03:09:48;;;;;;;;;;;;;;;0.98;85.65;103207.88;5073319;28;20408;-73
2023/04/19 03:12:14;;;;;;;;;;;;;;;0.97;85.75;103202.75;5070020;28;19964;-74
2023/04/19 03:14:41;;;;;;;;;;;;;;;1.11;86.12;103210.19;5071213;28;19936;-74
2023/04/19 03:17:09;;;;;;;;;;;;;;;1.00;85.63;103202.44;5053836;28;19947;-74
2023/04/19 03:19:35;;;;;;;;;;;;;;;0.97;85.93;103210.66;5104410;28;20397;-73
2023/04/19 03:22:01;;;;;;;;;;;;;;;0.86;85.90;103202.94;5090815;28;19945;-74
2023/04/19 03:24:31;;;;;;;;;;;;;;;0.84;85.92;103202.25;5070324;28;19973;-71
2023/04/19 03:27:02;;;;;;;;;;;;;;;0.96;86.15;103198.47;5056711;28;20019;-73
2023/04/19 03:29:29;;;;;;;;;;;;;;;0.86;86.75;103197.66;5086640;28;20047;-72
2023/04/19 03:32:10;;;;;;;;;;;;;;;0.77;86.94;103189.63;5085921;28;20047;-72
2023/04/19 03:34:35;;;;;;;;;;;;;;;0.72;87.29;103189.22;5069974;28;20558;-72
2023/04/19 03:37:01;;;;;;;;;;;;;;;0.92;87.66;103192.63;5087089;28;20044;-72
2023/04/19 03:39:27;;;;;;;;;;;;;;;1.11;87.63;103191.72;5070442;28;19935;-72
2023/04/19 03:41:58;;;;;;;;;;;;;;;1.00;87.77;103187.44;5070952;28;20473;-71
2023/04/19 03:44:51;;;;;;;;;;;;;;;0.92;87.87;103184.72;5058489;28;19939;-73
2023/04/19 03:47:17;;;;;;;;;;;;;;;1.03;87.68;103191.63;5059910;28;19989;-71
2023/04/19 03:49:46;;;;;;;;;;;;;;;1.02;87.88;103189.97;5084475;28;19947;-71
2023/04/19 03:52:12;;;;;;;;;;;;;;;0.90;87.84;103180.56;5073382;28;19949;-71
2023/04/19 03:54:37;;;;;;;;;;;;;;;0.92;88.16;103189.16;5048980;28;19989;-72
2023/04/19 03:57:07;;;;;;;;;;;;;;;0.93;87.99;103185.53;5070787;28;20043;-71
2023/04/19 03:59:36;;;;;;;;;;;;;;;0.90;88.12;103180.56;5089752;28;19939;-71
2023/04/19 04:02:02;;;;;;;;;;;;;;;0.87;88.20;103184.31;5071274;28;19932;-74
2023/04/19 04:04:28;;;;;;;;;;;;;;;0.76;88.24;103187.16;5069273;28;19959;-71
2023/04/19 04:06:54;;;;;;;;;;;;;;;0.86;87.92;103187.09;5107535;28;19953;-74
2023/04/19 04:09:20;;;;;;;;;;;;;;;0.84;88.01;103181.97;5085534;28;19942;-72
2023/04/19 04:11:45;;;;;;;;;;;;;;;0.82;88.22;103178.66;5074175;28;19950;-73
2023/04/19 04:14:11;;;;;;;;;;;;;;;0.89;87.98;103186.81;5089330;28;19933;-73
2023/04/19 04:16:37;;;;;;;;;;;;;;;0.91;87.61;103176.94;5056911;28;19952;-73
2023/04/19 04:19:03;;;;;;;;;;;;;;;0.88;87.59;103177.22;5073178;28;19934;-73
2023/04/19 04:21:31;;;;;;;;;;;;;;;0.95;87.81;103173.88;5086546;28;19938;-72
2023/04/19 04:24:00;;;;;;;;;;;;;;;0.99;87.63;103159.41;5070941;28;19940;-72
2023/04/19 04:26:44;;;;;;;;;;;;;;;1.05;87.68;103164.09;5087326;28;20039;-72
2023/04/19 04:29:22;;;;;;;;;;;;;;;1.22;86.99;103169.53;5068759;28;20414;-72
2023/04/19 04:31:50;;;;;;;;;;;;;;;1.23;87.08;103164.13;5084913;28;19995;-72
2023/04/19 04:34:19;;;;;;;;;;;;;;;1.42;86.34;103175.53;5071855;28;19943;-72
2023/04/19 04:36:52;;;;;;;;;;;;;;;1.46;86.44;103166.34;5077594;28;19952;-73
2023/04/19 04:39:19;;;;;;;;;;;;;;;1.64;85.87;103175.13;5072176;28;20490;-72
2023/04/19 04:41:45;;;;;;;;;;;;;;;1.65;86.07;103176.78;5085867;28;19934;-73
2023/04/19 04:44:11;;;;;;;;;;;;;;;1.76;86.04;103168.63;5104233;28;19930;-74
2023/04/19 04:46:36;;;;;;;;;;;;;;;2.13;85.35;103164.94;5071495;28;19989;-74
2023/04/19 04:49:02;;;;;;;;;;;;;;;2.29;84.35;103170.34;5071722;28;19935;-73
2023/04/19 04:51:28;;;;;;;;;;;;;;;2.46;83.91;103169.47;5072910;28;19969;-73
2023/04/19 04:53:55;;;;;;;;;;;;;;;2.50;84.07;103155.91;5085263;28;19927;-74
2023/04/19 04:56:22;;;;;;;;;;;;;;;2.72;83.36;103163.31;5071432;28;19961;-72
2023/04/19 04:58:47;;;;;;;;;;;;;;;2.91;82.61;103168.38;5102801;28;19944;-74
2023/04/19 05:01:21;;;;;;;;;;;;;;;2.99;82.91;103165.75;5051919;28;20413;-74
2023/04/19 05:03:47;;;;;;;;;;;;;;;3.09;82.08;103164.78;5070468;28;19917;-74
2023/04/19 05:06:17;;;;;;;;;;;;;;;3.19;81.39;103166.31;5053440;28;19954;-71
2023/04/19 05:08:43;;;;;;;;;;;;;;;3.32;81.14;103165.00;5071443;28;19946;-72
2023/04/19 05:11:20;;;;;;;;;;;;;;;3.40;80.62;103165.88;5073930;28;20643;-74
2023/04/19 05:13:46;;;;;;;;;;;;;;;3.38;81.46;103157.22;5088631;28;20006;-73
2023/04/19 05:16:12;;;;;;;;;;;;;;;3.49;80.20;103164.88;5088076;28;19986;-72
2023/04/19 05:18:40;;;;;;;;;;;;;;;3.54;79.96;103162.56;5067961;28;19934;-74
2023/04/19 05:21:09;;;;;;;;;;;;;;;3.70;77.37;103158.28;5072074;28;19943;-73
2023/04/19 05:23:36;;;;;;;;;;;;;;;3.72;78.44;103161.59;5049496;28;20021;-74
2023/04/19 05:26:02;;;;;;;;;;;;;;;3.86;77.08;103160.91;5084884;28;20014;-74
2023/04/19 05:28:28;;;;;;;;;;;;;;;3.96;76.87;103164.25;5103914;28;20401;-74
2023/04/19 05:31:05;;;;;;;;;;;;;;;4.06;75.60;103151.66;5087319;28;19929;-74
2023/04/19 05:33:37;;;;;;;;;;;;;;;4.22;74.84;103156.09;5095538;28;19949;-72
2023/04/19 05:36:03;;;;;;;;;;;;;;;4.18;75.71;103159.25;5074869;28;20607;-75
2023/04/19 05:38:28;;;;;;;;;;;;;;;4.31;74.02;103151.59;5086770;28;19948;-75
2023/04/19 05:40:56;;;;;;;;;;;;;;;4.35;74.64;103140.50;5074503;28;20397;-73
2023/04/19 05:43:22;;;;;;;;;;;;;;;4.54;73.09;103143.75;5098060;28;19944;-73
2023/04/19 05:45:47;;;;;;;;;;;;;;;4.57;72.32;103138.94;5073916;28;19962;-72
2023/04/19 05:48:13;;;;;;;;;;;;;;;4.81;71.34;103146.00;5068763;28;19935;-74
2023/04/19 05:50:56;;;;;;;;;;;;;;;4.98;67.74;103144.06;5069148;28;20308;-73
2023/04/19 05:53:54;;;;;;;;;;;;;;;5.12;68.57;103142.50;5077298;28;19940;-73
2023/04/19 05:56:20;;;;;;;;;;;;;;;5.11;68.52;103139.03;5090159;28;20299;-72
2023/04/19 05:58:45;;;;;;;;;;;;;;;5.37;65.75;103137.88;5058147;28;19932;-73
2023/04/19 06:01:11;;;;;;;;;;;;;;;5.48;64.83;103137.44;5060340;27;20586;-73
2023/04/19 06:03:37;;;;;;;;;;;;;;;5.58;65.46;103142.56;5097771;28;20031;-73
2023/04/19 06:06:03;;;;;;;;;;;;;;;5.73;63.74;103138.94;5076425;28;19954;-73
2023/04/19 06:08:28;;;;;;;;;;;;;;;5.78;64.99;103133.09;5108813;28;20139;-74
2023/04/19 06:10:55;;;;;;;;;;;;;;;5.88;64.21;103135.47;5081939;28;19942;-73
2023/04/19 06:13:21;;;;;;;;;;;;;;;5.97;62.72;103137.13;5076772;27;19953;-73
2023/04/19 06:15:47;;;;;;;;;;;;;;;6.08;62.09;103127.84;5087566;28;20410;-75
2023/04/19 06:18:13;;;;;;;;;;;;;;;6.19;62.67;103136.22;5088921;28;19936;-73
2023/04/19 06:20:39;;;;;;;;;;;;;;;6.16;61.87;103133.91;5070632;28;19957;-73
2023/04/19 06:23:05;;;;;;;;;;;;;;;6.28;62.71;103127.13;5069714;28;19934;-74
2023/04/19 06:25:30;;;;;;;;;;;;;;;6.40;61.74;103129.34;5088101;28;19961;-74
2023/04/19 06:27:56;;;;;;;;;;;;;;;6.63;60.82;103127.41;5058459;28;20022;-72
2023/04/19 06:30:21;;;;;;;;;;;;;;;6.80;60.81;103122.72;5062577;28;19942;-75
2023/04/19 06:32:47;;;;;;;;;;;;;;;6.81;59.59;103130.50;5075260;28;20625;-73
2023/04/19 06:35:15;;;;;;;;;;;;;;;6.97;58.51;103128.66;5087660;28;20023;-73
2023/04/19 06:37:40;;;;;;;;;;;;;;;7.21;60.44;103120.31;5074712;28;19944;-72
2023/04/19 06:40:07;;;;;;;;;;;;;;;7.39;56.60;103126.06;5075890;28;19929;-73
2023/04/19 06:42:36;;;;;;;;;;;;;;;7.36;57.10;103120.25;5078404;28;19934;-72
2023/04/19 06:45:02;;;;;;;;;;;;;;;7.49;56.27;103122.22;5077781;28;20292;-71
2023/04/19 06:47:30;;;;;;;;;;;;;;;7.54;55.98;103127.81;5075691;28;19959;-72
2023/04/19 06:49:56;;;;;;;;;;;;;;;7.51;55.50;103125.53;5095582;28;19934;-70
2023/04/19 06:52:22;;;;;;;;;;;;;;;7.85;54.58;103119.47;5074460;28;19964;-71
2023/04/19 06:54:48;;;;;;;;;;;;;;;7.81;53.80;103112.88;5090632;28;19931;-74
2023/04/19 06:57:15;;;;;;;;;;;;;;;7.79;54.36;103112.22;5078485;28;19959;-73
2023/04/19 06:59:40;;;;;;;;;;;;;;;7.87;54.63;103115.59;5092663;28;19939;-72
2023/04/19 07:02:06;;;;;;;;;;;;;;;8.08;54.11;103119.25;5089976;28;20277;-72
2023/04/19 07:04:32;;;;;;;;;;;;;;;8.14;52.59;103110.44;5093728;28;19940;-73
2023/04/19 07:06:57;;;;;;;;;;;;;;;8.19;52.91;103108.00;5075715;28;20105;-73
2023/04/19 07:09:24;;;;;;;;;;;;;;;8.37;53.38;103108.34;5075836;28;19987;-72
2023/04/19 07:11:50;;;;;;;;;;;;;;;8.56;52.45;103111.34;5074356;28;19962;-73
2023/04/19 07:14:17;;;;;;;;;;;;;;;8.54;52.67;103094.69;5100296;28;19936;-71
2023/04/19 07:16:44;;;;;;;;;;;;;;;8.65;52.03;103102.94;5104321;28;19948;-74
2023/04/19 07:19:09;;;;;;;;;;;;;;;8.52;51.73;103102.06;5102083;28;19966;-73
2023/04/19 07:21:37;;;;;;;;;;;;;;;8.67;51.94;103097.41;5073357;28;20028;-74
2023/04/19 07:24:03;;;;;;;;;;;;;;;8.64;51.23;103092.47;5088449;28;20346;-72
2023/04/19 07:26:28;;;;;;;;;;;;;;;8.76;51.79;103093.53;5071936;28;20455;-74
2023/04/19 07:28:54;;;;;;;;;;;;;;;8.88;50.90;103091.13;5102531;28;19933;-73
2023/04/19 07:31:20;;;;;;;;;;;;;;;9.12;51.16;103093.22;5069364;28;19953;-74
2023/04/19 07:33:45;;;;;;;;;;;;;;;9.20;50.97;103095.72;5082878;28;20059;-72
2023/04/19 07:36:11;;;;;;;;;;;;;;;9.28;50.25;103086.69;5082123;28;19950;-73
2023/04/19 07:38:37;;;;;;;;;;;;;;;9.41;50.75;103093.88;5103145;28;19951;-74
2023/04/19 07:41:04;;;;;;;;;;;;;;;9.73;50.39;103095.75;5070058;28;19939;-72
2023/04/19 07:43:29;;;;;;;;;;;;;;;9.67;49.34;103095.75;5085779;28;20042;-74
2023/04/19 07:45:57;;;;;;;;;;;;;;;9.72;49.04;103082.59;5053490;28;20033;-72
2023/04/19 07:48:23;;;;;;;;;;;;;;;9.85;49.89;103085.25;5085935;28;19936;-74
2023/04/19 07:50:48;;;;;;;;;;;;;;;9.92;48.91;103094.09;5068243;28;20297;-74
2023/04/19 07:53:15;;;;;;;;;;;;;;;9.91;48.60;103097.81;5104772;28;20390;-74
2023/04/19 07:55:40;;;;;;;;;;;;;;;9.91;48.16;103080.94;5070078;28;19988;-73
2023/04/19 07:58:06;;;;;;;;;;;;;;;10.22;49.71;103090.94;5104393;27;20035;-74
2023/04/19 08:00:35;;;;;;;;;;;;;;;10.15;47.34;103082.94;5088110;28;19940;-73
2023/04/19 08:03:01;;;;;;;;;;;;;;;10.32;47.71;103080.66;5057989;28;20447;-74
2023/04/19 08:05:26;;;;;;;;;;;;;;;10.44;47.86;103080.84;5070670;28;19952;-73
2023/04/19 08:07:52;;;;;;;;;;;;;;;10.64;46.86;103081.59;5107634;28;20005;-75
2023/04/19 08:10:18;;;;;;;;;;;;;;;10.60;45.83;103081.19;5081673;28;19932;-73
2023/04/19 08:12:43;;;;;;;;;;;;;;;10.56;46.65;103074.59;5103639;28;19955;-72
2023/04/19 08:15:12;;;;;;;;;;;;;;;10.69;45.96;103083.63;5071939;28;19980;-74
2023/04/19 08:17:39;;;;;;;;;;;;;;;10.56;45.08;103074.59;5088524;28;19972;-72
2023/04/19 08:20:05;;;;;;;;;;;;;;;10.62;46.75;103079.09;5088019;28;19943;-74
2023/04/19 08:22:31;;;;;;;;;;;;;;;10.79;45.80;103078.63;5087471;28;19941;-74
2023/04/19 08:24:56;;;;;;;;;;;;;;;10.79;45.64;103084.00;5073895;28;19937;-73
2023/04/19 08:27:22;;;;;;;;;;;;;;;10.47;45.00;103075.88;5068885;28;19956;-73
2023/04/19 08:29:48;;;;;;;;;;;;;;;10.73;46.15;103072.25;5052434;28;19932;-73
2023/04/19 08:32:13;;;;;;;;;;;;;;;10.91;44.95;103079.59;5056415;28;20330;-72
2023/04/19 08:34:39;;;;;;;;;;;;;;;11.06;44.77;103071.25;5056971;28;20274;-72
2023/04/19 08:37:06;;;;;;;;;;;;;;;10.87;43.98;103068.47;5104802;28;20719;-73
2023/04/19 08:39:35;;;;;;;;;;;;;;;10.79;44.48;103063.38;5103372;28;20044;-74
2023/04/19 08:42:05;;;;;;;;;;;;;;;11.23;45.49;103068.88;5071877;28;19942;-72
2023/04/19 08:44:31;;;;;;;;;;;;;;;11.04;43.17;103059.91;5089277;28;19938;-72
2023/04/19 08:46:58;;;;;;;;;;;;;;;11.19;43.58;103058.59;5070751;28;19963;-72
2023/04/19 08:49:23;;;;;;;;;;;;;;;11.19;43.22;103052.41;5067737;28;19934;-73
2023/04/19 08:51:50;;;;;;;;;;;;;;;11.13;44.15;103054.09;5067530;28;19984;-72
2023/04/19 08:54:17;;;;;;;;;;;;;;;11.14;42.73;103054.91;5070558;28;19944;-72
2023/04/19 08:56:43;;;;;;;;;;;;;;;11.43;42.92;103040.84;5081417;28;19975;-72
2023/04/19 08:59:08;;;;;;;;;;;;;;;11.83;41.70;103047.75;5103047;28;19941;-73
2023/04/19 09:01:34;;;;;;;;;;;;;;;11.60;41.67;103049.19;5103335;28;20292;-72
2023/04/19 09:03:59;;;;;;;;;;;;;;;11.59;41.41;103036.81;5089895;28;19975;-71
2023/04/19 09:06:27;;;;;;;;;;;;;;;11.36;40.62;103044.63;5109739;28;20353;-74
2023/04/19 09:09:12;;;;;;;;;;;;;;;11.55;40.09;103035.59;5090885;28;19934;-72
2023/04/19 09:11:37;;;;;;;;;;;;;;;11.53;39.68;103032.31;5066178;28;19965;-71
2023/04/19 09:14:07;;;;;;;;;;;;;;;11.94;42.29;103028.22;5101779;28;19931;-74
2023/04/19 09:16:32;;;;;;;;;;;;;;;11.84;39.25;103033.28;5084858;28;20560;-75
2023/04/19 09:19:00;;;;;;;;;;;;;;;12.24;39.15;103049.78;5088071;28;19991;-71
2023/04/19 09:21:30;;;;;;;;;;;;;;;12.08;36.17;103013.63;5074876;28;19936;-72
2023/04/19 09:23:55;;;;;;;;;;;;;;;11.96;36.72;103015.41;5064065;28;20026;-76
2023/04/19 09:26:21;;;;;;;;;;;;;;;11.82;37.85;103028.16;5083640;28;20065;-74
2023/04/19 09:28:57;;;;;;;;;;;;;;;11.80;37.55;103021.34;5053712;28;20684;-71
2023/04/19 09:31:24;;;;;;;;;;;;;;;11.92;35.65;103008.81;5069439;28;19938;-73
2023/04/19 09:33:50;;;;;;;;;;;;;;;11.81;36.90;103015.75;5071447;28;19946;-72
2023/04/19 09:36:29;;;;;;;;;;;;;;;12.14;36.04;103007.34;5086906;28;20309;-73
2023/04/19 09:38:55;;;;;;;;;;;;;;;12.01;35.16;103002.13;5071950;28;20339;-72
2023/04/19 09:41:21;;;;;;;;;;;;;;;12.07;35.44;102998.53;5102854;28;19974;-72
2023/04/19 09:43:46;;;;;;;;;;;;;;;12.51;36.34;103004.59;5103263;28;19974;-73
2023/04/19 09:46:30;;;;;;;;;;;;;;;12.34;35.05;102998.22;5085094;28;19944;-74
2023/04/19 09:49:14;;;;;;;;;;;;;;;12.47;34.67;103001.56;5088436;28;19937;-73
2023/04/19 09:51:44;;;;;;;;;;;;;;;11.87;34.02;103000.63;5096507;27;20009;-74
2023/04/19 09:54:10;;;;;;;;;;;;;;;12.21;34.81;102997.34;5069876;28;19942;-74
2023/04/19 09:56:36;;;;;;;;;;;;;;;12.43;35.22;102995.00;5072160;28;19957;-74
2023/04/19 09:59:02;;;;;;;;;;;;;;;12.80;33.66;102984.97;5086801;28;19960;-73
2023/04/19 10:01:28;;;;;;;;;;;;;;;12.95;32.82;102989.09;5066163;28;19976;-73
2023/04/19 10:03:55;;;;;;;;;;;;;;;12.83;32.99;102973.75;5087954;28;19937;-73
2023/04/19 10:06:20;;;;;;;;;;;;;;;12.77;32.97;102979.22;5100962;28;20000;-74
2023/04/19 10:08:47;;;;;;;;;;;;;;;12.56;31.79;102975.19;5065495;28;20539;-73
2023/04/19 10:11:13;;;;;;;;;;;;;;;12.38;31.44;102967.16;5100515;28;20006;-74
2023/04/19 10:13:40;;;;;;;;;;;;;;;12.82;32.49;102969.41;5055334;28;20321;-73
2023/04/19 10:16:06;;;;;;;;;;;;;;;12.78;31.49;102959.34;5087654;28;19954;-74
2023/04/19 10:18:34;;;;;;;;;;;;;;;12.36;30.53;102958.50;5071453;28;19939;-74
2023/04/19 10:21:07;;;;;;;;;;;;;;;12.69;32.04;102958.84;5105616;28;20336;-73
2023/04/19 10:23:32;;;;;;;;;;;;;;;13.03;31.72;102956.47;5072022;28;20403;-70
2023/04/19 10:25:58;;;;;;;;;;;;;;;13.21;30.29;102948.34;5071525;28;20056;-75
2023/04/19 10:28:26;;;;;;;;;;;;;;;12.58;30.13;102947.00;5086957;28;19945;-74
2023/04/19 10:30:59;;;;;;;;;;;;;;;12.89;31.50;102936.22;5069815;28;19934;-73
2023/04/19 10:33:26;;;;;;;;;;;;;;;12.89;30.81;102949.69;5073402;28;20027;-72
2023/04/19 10:35:54;;;;;;;;;;;;;;;13.36;32.04;102934.41;5070803;28;19957;-73
2023/04/19 10:38:34;;;;;;;;;;;;;;;13.16;28.14;102945.50;5072325;28;19989;-75
2023/04/19 10:41:00;;;;;;;;;;;;;;;13.10;28.86;102935.66;5053481;28;19937;-71
2023/04/19 10:43:29;;;;;;;;;;;;;;;12.65;27.35;102932.66;5101374;28;19970;-74
2023/04/19 10:45:58;;;;;;;;;;;;;;;12.75;27.78;102943.69;5085694;28;19963;-73
2023/04/19 10:48:31;;;;;;;;;;;;;;;12.39;27.29;102940.03;5068985;28;19936;-71
2023/04/19 10:50:58;;;;;;;;;;;;;;;12.77;28.02;102941.56;5067611;28;19942;-73
2023/04/19 10:53:44;;;;;;;;;;;;;;;12.76;28.16;102930.00;5086914;28;20030;-74
2023/04/19 10:56:10;;;;;;;;;;;;;;;13.12;28.88;102920.09;5083204;28;19951;-75
2023/04/19 10:58:55;;;;;;;;;;;;;;;13.08;27.40;102918.94;5068194;28;19939;-73
2023/04/19 11:01:38;;;;;;;;;;;;;;;13.32;27.76;102909.84;5102647;28;20032;-74
2023/04/19 11:04:04;;;;;;;;;;;;;;;12.87;27.32;102919.47;5081395;28;19935;-72
2023/04/19 11:06:31;;;;;;;;;;;;;;;12.78;26.15;102914.44;5059920;28;19961;-72
2023/04/19 11:08:57;;;;;;;;;;;;;;;12.70;26.62;102909.41;5099441;28;20017;-72
2023/04/19 11:11:24;;;;;;;;;;;;;;;12.57;26.63;102898.88;5098024;28;20015;-74
2023/04/19 11:13:49;;;;;;;;;;;;;;;12.68;26.81;102905.31;5083367;28;19954;-76
2023/04/19 11:16:15;;;;;;;;;;;;;;;12.99;27.54;102901.50;5067702;28;19970;-74
2023/04/19 11:18:43;;;;;;;;;;;;;;;13.22;27.64;102889.97;5081705;28;19937;-73
2023/04/19 11:21:12;;;;;;;;;;;;;;;13.25;27.40;102879.53;5082283;28;19930;-73
2023/04/19 11:23:38;;;;;;;;;;;;;;;13.04;26.62;102896.25;5072507;27;20350;-73
2023/04/19 11:26:04;;;;;;;;;;;;;;;13.09;26.93;102891.81;5068142;28;19958;-72
2023/04/19 11:28:32;;;;;;;;;;;;;;;12.94;26.85;102872.63;5084254;28;19986;-73
2023/04/19 11:30:58;;;;;;;;;;;;;;;12.97;26.66;102868.66;5083983;28;20312;-73
2023/04/19 11:33:27;;;;;;;;;;;;;;;13.19;27.82;102872.38;5081889;28;20231;-74
2023/04/19 11:35:53;;;;;;;;;;;;;;;13.26;26.80;102875.78;5053090;28;20045;-74
2023/04/19 11:38:18;;;;;;;;;;;;;;;13.00;26.58;102877.03;5099264;28;20362;-75
2023/04/19 11:40:44;;;;;;;;;;;;;;;13.15;27.75;102860.47;5070861;28;19946;-73
2023/04/19 11:43:12;;;;;;;;;;;;;;;13.19;26.30;102869.69;5098196;28;20384;-72
2023/04/19 11:45:38;;;;;;;;;;;;;;;12.80;26.42;102872.03;5071491;28;19955;-73
2023/04/19 11:48:03;;;;;;;;;;;;;;;12.72;27.11;102858.09;5094778;28;19938;-73
2023/04/19 11:50:33;;;;;;;;;;;;;;;13.09;27.78;102866.78;5062742;28;19990;-73
2023/04/19 11:53:08;;;;;;;;;;;;;;;12.64;27.92;102872.69;5062361;28;19964;-74
2023/04/19 11:55:33;;;;;;;;;;;;;;;12.72;27.42;102880.41;5084066;28;19958;-75
2023/04/19 11:57:59;;;;;;;;;;;;;;;12.85;27.13;102861.38;5069473;28;19937;-74
2023/04/19 12:00:29;;;;;;;;;;;;;;;12.95;27.62;102868.06;5104965;28;20394;-75
2023/04/19 12:02:55;;;;;;;;;;;;;;;13.19;26.91;102858.09;5051648;28;19988;-74
2023/04/19 12:05:20;;;;;;;;;;;;;;;13.84;26.98;102868.66;5067318;28;19930;-77
2023/04/19 12:08:02;;;;;;;;;;;;;;;13.71;26.78;102858.16;5093251;28;19942;-74
2023/04/19 12:10:27;;;;;;;;;;;;;;;13.47;26.77;102854.69;5085599;28;20044;-73
2023/04/19 12:12:53;;;;;;;;;;;;;;;13.93;26.61;102861.81;5073373;28;20050;-74
2023/04/19 12:15:19;;;;;;;;;;;;;;;13.58;26.74;102837.72;5083902;28;20024;-73
2023/04/19 12:17:55;;;;;;;;;;;;;;;13.73;26.53;102856.03;5097177;28;19948;-75
2023/04/19 12:20:31;;;;;;;;;;;;;;;13.17;25.63;102852.97;5097059;28;19983;-73
2023/04/19 12:22:57;;;;;;;;;;;;;;;13.29;25.10;102848.44;5070894;28;20399;-72
2023/04/19 12:25:26;;;;;;;;;;;;;;;13.15;26.35;102847.00;5081478;28;19940;-73
2023/04/19 12:27:52;;;;;;;;;;;;;;;13.52;26.92;102846.72;5083442;28;19939;-74
2023/04/19 12:30:18;;;;;;;;;;;;;;;13.49;26.56;102847.22;5064824;28;20132;-74
2023/04/19 12:32:43;;;;;;;;;;;;;;;13.81;26.52;102837.63;5084701;28;19956;-75
2023/04/19 12:35:09;;;;;;;;;;;;;;;13.92;26.33;102839.44;5067487;28;20311;-73
2023/04/19 12:37:34;;;;;;;;;;;;;;;13.62;27.31;102825.41;5083204;28;20054;-74
2023/04/19 12:40:00;;;;;;;;;;;;;;;14.04;26.90;102827.81;5068333;28;20035;-74
2023/04/19 12:42:26;;;;;;;;;;;;;;;14.66;26.27;102835.91;5103237;28;19948;-74
2023/04/19 12:44:51;;;;;;;;;;;;;;;14.34;27.51;102839.13;5097281;28;19941;-72